Time;durP1;ratioP1;P1;durP2;ratioP2;P2;SDS_P1;SDS_P2;PMS_P1;PMS_P2;Temp;Humidity;BMP_temperature;BMP_pressure;BME280_temperature;BME280_humidity;BME280_pressure;Samples;Min_cycle;Max_cycle;Signal;HPM_P1;HPM_P2
2023/03/29 00:00:27;;;;;;;;;;;;;;;10.33;100.00;99399.25;5107638;28;20398;-79
2023/03/29 00:02:58;;;;;;;;;;;;;;;10.35;100.00;99406.00;5116820;27;19916;-79
2023/03/29 00:05:32;;;;;;;;;;;;;;;10.36;100.00;99393.63;5081766;28;19919;-79
2023/03/29 00:08:03;;;;;;;;;;;;;;;10.39;100.00;99388.00;5096704;28;20292;-79
2023/03/29 00:10:33;;;;;;;;;;;;;;;10.41;100.00;99383.38;5069323;28;19916;-79
2023/03/29 00:13:03;;;;;;;;;;;;;;;10.45;100.00;99389.97;5077924;27;20986;-79
2023/03/29 00:15:33;;;;;;;;;;;;;;;10.44;100.00;99393.59;5075303;28;20287;-79
2023/03/29 00:18:00;;;;;;;;;;;;;;;10.44;100.00;99404.19;5104431;27;19943;-79
2023/03/29 00:20:28;;;;;;;;;;;;;;;10.41;100.00;99405.34;5094171;28;19923;-79
2023/03/29 00:22:55;;;;;;;;;;;;;;;10.40;100.00;99406.31;5075813;28;19915;-79
2023/03/29 00:25:23;;;;;;;;;;;;;;;10.41;100.00;99412.44;5087750;27;20002;-79
2023/03/29 00:27:51;;;;;;;;;;;;;;;10.42;100.00;99406.16;5106425;28;19923;-78
2023/03/29 00:30:20;;;;;;;;;;;;;;;10.42;100.00;99406.16;5109143;28;19919;-79
2023/03/29 00:32:50;;;;;;;;;;;;;;;10.41;100.00;99400.06;5089121;28;19924;-79
2023/03/29 00:35:18;;;;;;;;;;;;;;;10.42;100.00;99392.94;5092006;28;20006;-79
2023/03/29 00:37:49;;;;;;;;;;;;;;;10.39;100.00;99388.00;5095048;28;19916;-79
2023/03/29 00:40:17;;;;;;;;;;;;;;;10.38;100.00;99381.09;5097430;27;19915;-79
2023/03/29 00:42:45;;;;;;;;;;;;;;;10.36;100.00;99383.06;5126297;27;20287;-79
2023/03/29 00:45:12;;;;;;;;;;;;;;;10.36;100.00;99368.03;5077926;28;19961;-79
2023/03/29 00:47:42;;;;;;;;;;;;;;;10.36;100.00;99380.41;5088814;28;19920;-78
2023/03/29 00:50:11;;;;;;;;;;;;;;;10.35;100.00;99378.78;5098754;28;20069;-79
2023/03/29 00:52:40;;;;;;;;;;;;;;;10.34;100.00;99377.09;5093526;28;19924;-79
2023/03/29 00:55:11;;;;;;;;;;;;;;;10.35;100.00;99366.38;5111845;28;19922;-79
2023/03/29 00:57:45;;;;;;;;;;;;;;;10.37;100.00;99358.28;5066761;28;20053;-79
2023/03/29 01:00:20;;;;;;;;;;;;;;;10.38;100.00;99352.03;5079261;28;19931;-78
2023/03/29 01:02:53;;;;;;;;;;;;;;;10.37;100.00;99339.78;5086029;28;20402;-79
2023/03/29 01:05:32;;;;;;;;;;;;;;;10.33;100.00;99336.69;5087584;28;20399;-79
2023/03/29 01:08:03;;;;;;;;;;;;;;;10.27;100.00;99332.91;5089488;28;19966;-79
2023/03/29 01:10:38;;;;;;;;;;;;;;;10.25;100.00;99334.91;5103329;28;19927;-79
2023/03/29 01:13:12;;;;;;;;;;;;;;;10.23;100.00;99342.16;5088109;28;19924;-78
2023/03/29 01:15:43;;;;;;;;;;;;;;;10.23;100.00;99326.31;5101266;28;19916;-79
2023/03/29 01:18:11;;;;;;;;;;;;;;;10.22;100.00;99332.59;5107214;28;19916;-79
2023/03/29 01:20:45;;;;;;;;;;;;;;;10.23;100.00;99328.13;5083252;28;19920;-79
2023/03/29 01:23:28;;;;;;;;;;;;;;;10.22;100.00;99331.75;5071280;28;20438;-79
2023/03/29 01:25:57;;;;;;;;;;;;;;;10.22;100.00;99332.59;5091608;28;19965;-79
2023/03/29 01:28:30;;;;;;;;;;;;;;;10.20;100.00;99329.28;5090548;28;19920;-78
2023/03/29 01:31:07;;;;;;;;;;;;;;;10.24;100.00;99321.88;5093676;28;19922;-78
2023/03/29 01:33:38;;;;;;;;;;;;;;;10.24;100.00;99313.94;5102293;28;19931;-79
2023/03/29 01:36:27;;;;;;;;;;;;;;;10.22;100.00;99303.56;5079710;28;19923;-79
2023/03/29 01:38:58;;;;;;;;;;;;;;;10.22;100.00;99300.06;5087922;28;19925;-79
2023/03/29 01:41:33;;;;;;;;;;;;;;;10.20;100.00;99302.06;5090857;28;19923;-79
2023/03/29 01:44:24;;;;;;;;;;;;;;;10.18;100.00;99287.22;5107675;28;20383;-79
2023/03/29 01:47:08;;;;;;;;;;;;;;;10.20;100.00;99289.69;5108026;28;19954;-79
2023/03/29 01:49:48;;;;;;;;;;;;;;;10.20;100.00;99294.13;5109543;28;19923;-78
2023/03/29 01:52:22;;;;;;;;;;;;;;;10.21;100.00;99307.16;5093128;28;20379;-79
2023/03/29 01:55:01;;;;;;;;;;;;;;;10.17;100.00;99303.22;5105288;28;19923;-78
2023/03/29 01:57:30;;;;;;;;;;;;;;;10.18;100.00;99310.16;5106470;28;19919;-78
2023/03/29 01:59:59;;;;;;;;;;;;;;;10.18;100.00;99297.78;5114891;28;19966;-79
2023/03/29 02:02:28;;;;;;;;;;;;;;;10.24;100.00;99298.09;5091125;27;20113;-79
2023/03/29 02:04:56;;;;;;;;;;;;;;;10.28;100.00;99292.31;5091516;28;20379;-79
2023/03/29 02:07:26;;;;;;;;;;;;;;;10.32;100.00;99279.56;5099349;28;19919;-79
2023/03/29 02:09:56;;;;;;;;;;;;;;;10.35;100.00;99260.72;5071643;28;20444;-79
2023/03/29 02:12:23;;;;;;;;;;;;;;;10.37;100.00;99250.81;5112992;28;19959;-79
2023/03/29 02:14:52;;;;;;;;;;;;;;;10.38;100.00;99263.00;5089675;28;20356;-79
2023/03/29 02:17:22;;;;;;;;;;;;;;;10.35;100.00;99273.94;5099597;28;19920;-78
2023/03/29 02:20:13;;;;;;;;;;;;;;;10.34;100.00;99268.81;5076974;28;20372;-79
2023/03/29 02:22:45;;;;;;;;;;;;;;;10.36;100.00;99265.03;5096487;27;19920;-79
2023/03/29 02:25:17;;;;;;;;;;;;;;;10.38;100.00;99259.56;5093867;28;19926;-79
2023/03/29 02:27:46;;;;;;;;;;;;;;;10.39;100.00;99240.91;5076820;28;19965;-79
2023/03/29 02:30:17;;;;;;;;;;;;;;;10.37;100.00;99229.69;5100221;27;19919;-79
2023/03/29 02:33:05;;;;;;;;;;;;;;;10.35;100.00;99223.75;5108768;27;20007;-79
2023/03/29 02:35:38;;;;;;;;;;;;;;;10.35;100.00;99223.75;5097555;28;19920;-79
2023/03/29 02:38:10;;;;;;;;;;;;;;;10.33;100.00;99217.00;5083317;28;19959;-79
2023/03/29 02:40:41;;;;;;;;;;;;;;;10.29;100.00;99224.44;5090891;28;19919;-79
2023/03/29 02:43:12;;;;;;;;;;;;;;;10.25;100.00;99223.97;5115718;27;19923;-79
2023/03/29 02:45:43;;;;;;;;;;;;;;;10.29;100.00;99220.00;5061870;28;19935;-78
2023/03/29 02:48:17;;;;;;;;;;;;;;;10.27;100.00;99216.69;5074128;27;20411;-79
2023/03/29 02:50:49;;;;;;;;;;;;;;;10.34;100.00;99216.00;5088611;28;19922;-78
2023/03/29 02:53:22;;;;;;;;;;;;;;;10.34;100.00;99214.19;5069260;28;19924;-79
2023/03/29 02:55:52;;;;;;;;;;;;;;;10.34;100.00;99210.72;5092917;28;19923;-78
2023/03/29 02:58:27;;;;;;;;;;;;;;;10.35;100.00;99207.91;5073917;28;19920;-79
2023/03/29 03:00:58;;;;;;;;;;;;;;;10.34;100.00;99208.06;5092937;28;19919;-79
2023/03/29 03:03:26;;;;;;;;;;;;;;;10.35;100.00;99205.25;5077851;28;21017;-79
2023/03/29 03:05:55;;;;;;;;;;;;;;;10.34;100.00;99200.16;5105992;28;19915;-78
2023/03/29 03:08:22;;;;;;;;;;;;;;;10.35;100.00;99191.25;5081769;28;19916;-78
2023/03/29 03:10:51;;;;;;;;;;;;;;;10.36;100.00;99191.06;5093687;28;20006;-79
2023/03/29 03:13:19;;;;;;;;;;;;;;;10.37;100.00;99192.72;5108569;28;19924;-78
2023/03/29 03:15:48;;;;;;;;;;;;;;;10.38;100.00;99182.97;5093152;28;20435;-79
2023/03/29 03:18:16;;;;;;;;;;;;;;;10.40;100.00;99175.72;5100238;28;19998;-78
2023/03/29 03:20:55;;;;;;;;;;;;;;;10.40;100.00;99168.59;5106791;28;19920;-79
2023/03/29 03:23:25;;;;;;;;;;;;;;;10.38;100.00;99162.66;5111249;28;19927;-78
2023/03/29 03:25:54;;;;;;;;;;;;;;;10.39;100.00;99161.66;5092923;28;19923;-79
2023/03/29 03:28:22;;;;;;;;;;;;;;;10.39;100.00;99145.00;5085859;28;19924;-79
2023/03/29 03:30:51;;;;;;;;;;;;;;;10.36;100.00;99127.69;5107491;28;19926;-79
2023/03/29 03:33:46;;;;;;;;;;;;;;;10.37;100.00;99115.28;5108822;28;20399;-79
2023/03/29 03:36:40;;;;;;;;;;;;;;;10.36;100.00;99109.19;5105940;28;20215;-78
2023/03/29 03:39:07;;;;;;;;;;;;;;;10.36;100.00;99103.91;5102514;28;19915;-79
2023/03/29 03:41:35;;;;;;;;;;;;;;;10.36;100.00;99095.97;5103323;28;19963;-79
2023/03/29 03:44:03;;;;;;;;;;;;;;;10.40;100.00;99091.97;5092314;28;19923;-79
2023/03/29 03:46:31;;;;;;;;;;;;;;;10.42;100.00;99092.63;5085348;28;19945;-78
2023/03/29 03:49:01;;;;;;;;;;;;;;;10.42;100.00;99087.34;5074654;28;19960;-79
2023/03/29 03:51:34;;;;;;;;;;;;;;;10.45;100.00;99088.00;5100880;28;20402;-79
2023/03/29 03:54:03;;;;;;;;;;;;;;;10.42;100.00;99086.53;5109087;28;19920;-79
2023/03/29 03:56:36;;;;;;;;;;;;;;;10.44;100.00;99087.19;5109704;28;20302;-78
2023/03/29 03:59:06;;;;;;;;;;;;;;;10.41;100.00;99079.59;5111329;28;19916;-79
2023/03/29 04:01:52;;;;;;;;;;;;;;;10.40;100.00;99085.91;5091489;28;20296;-79
2023/03/29 04:04:24;;;;;;;;;;;;;;;10.38;100.00;99077.31;5096859;27;20011;-79
2023/03/29 04:07:13;;;;;;;;;;;;;;;10.36;100.00;99080.13;5110933;27;19911;-79
2023/03/29 04:09:41;;;;;;;;;;;;;;;10.34;100.00;99078.66;5130576;27;20016;-78
2023/03/29 04:12:41;;;;;;;;;;;;;;;10.34;100.00;99068.09;5085902;27;19984;-78
2023/03/29 04:15:10;;;;;;;;;;;;;;;10.31;100.00;99061.34;5109219;27;19919;-79
2023/03/29 04:17:44;;;;;;;;;;;;;;;10.32;100.00;99062.97;5097056;27;20059;-78
2023/03/29 04:20:20;;;;;;;;;;;;;;;10.33;100.00;99063.81;5112275;27;19983;-79
2023/03/29 04:22:51;;;;;;;;;;;;;;;10.32;100.00;99062.97;5088778;27;19923;-79
2023/03/29 04:25:21;;;;;;;;;;;;;;;10.30;100.00;99055.25;5114406;27;19915;-79
2023/03/29 04:28:11;;;;;;;;;;;;;;;10.33;100.00;99053.25;5131749;27;19916;-79
2023/03/29 04:30:50;;;;;;;;;;;;;;;10.33;100.00;99050.59;5110027;27;19916;-79
2023/03/29 04:33:32;;;;;;;;;;;;;;;10.33;100.00;99042.69;5094369;28;20360;-78
2023/03/29 04:36:01;;;;;;;;;;;;;;;10.35;100.00;99049.44;5088778;27;19923;-79
2023/03/29 04:38:28;;;;;;;;;;;;;;;10.36;100.00;99043.16;5088971;28;20002;-78
2023/03/29 04:40:57;;;;;;;;;;;;;;;10.39;100.00;99042.81;5090490;28;20368;-79
2023/03/29 04:43:33;;;;;;;;;;;;;;;10.41;100.00;99038.19;5089575;27;19919;-78
2023/03/29 04:46:20;;;;;;;;;;;;;;;10.45;100.00;99028.06;5099571;27;19938;-78
2023/03/29 04:49:08;;;;;;;;;;;;;;;10.47;100.00;99022.63;5069211;27;19915;-79
2023/03/29 04:51:43;;;;;;;;;;;;;;;10.48;100.00;99013.72;5096254;27;20014;-79
2023/03/29 04:54:12;;;;;;;;;;;;;;;10.50;100.00;99007.25;5127655;27;20287;-79
2023/03/29 04:56:59;;;;;;;;;;;;;;;10.50;100.00;99001.13;5115436;28;19915;-79
2023/03/29 04:59:37;;;;;;;;;;;;;;;10.51;100.00;98992.22;5091498;28;19923;-79
2023/03/29 05:02:15;;;;;;;;;;;;;;;10.49;100.00;98997.69;5108315;28;19980;-79
2023/03/29 05:04:47;;;;;;;;;;;;;;;10.51;100.00;99000.16;5063823;28;19916;-79
2023/03/29 05:07:18;;;;;;;;;;;;;;;10.50;100.00;98996.69;5098374;28;19916;-79
2023/03/29 05:09:46;;;;;;;;;;;;;;;10.52;100.00;98984.13;5093357;28;19920;-79
2023/03/29 05:12:14;;;;;;;;;;;;;;;10.51;100.00;98982.47;5103114;28;19915;-78
2023/03/29 05:14:54;;;;;;;;;;;;;;;10.51;100.00;98986.94;5073325;28;19959;-79
2023/03/29 05:17:26;;;;;;;;;;;;;;;10.51;100.00;98987.75;5085779;28;19961;-79
2023/03/29 05:19:58;;;;;;;;;;;;;;;10.52;100.00;98989.41;5106934;27;20272;-79
2023/03/29 05:22:28;;;;;;;;;;;;;;;10.53;100.00;98992.84;5100018;28;19962;-80
2023/03/29 05:24:56;;;;;;;;;;;;;;;10.53;100.00;98984.91;5100921;27;20011;-79
2023/03/29 05:27:26;;;;;;;;;;;;;;;10.53;100.00;98966.41;5100977;27;19968;-79
2023/03/29 05:30:01;;;;;;;;;;;;;;;10.53;100.00;98980.47;5087643;27;19968;-79
2023/03/29 05:32:38;;;;;;;;;;;;;;;10.53;100.00;98992.84;5078321;28;19919;-79
2023/03/29 05:35:10;;;;;;;;;;;;;;;10.52;100.00;98970.91;5091030;28;20382;-79
2023/03/29 05:37:40;;;;;;;;;;;;;;;10.51;100.00;98961.31;5058506;28;19915;-79
2023/03/29 05:40:11;;;;;;;;;;;;;;;10.49;100.00;98968.63;5101129;27;19919;-79
2023/03/29 05:43:15;;;;;;;;;;;;;;;10.47;100.00;98952.13;4995637;28;19913;-79
2023/03/29 05:45:43;;;;;;;;;;;;;;;10.46;100.00;98944.34;5068311;27;19919;-79
2023/03/29 05:48:12;;;;;;;;;;;;;;;10.42;100.00;98941.25;5096974;27;19911;-79
2023/03/29 05:50:46;;;;;;;;;;;;;;;10.42;100.00;98931.50;5083755;27;19943;-79
2023/03/29 05:53:16;;;;;;;;;;;;;;;10.41;100.00;98929.88;5069325;28;19930;-79
2023/03/29 05:55:46;;;;;;;;;;;;;;;10.39;100.00;98923.13;5070849;28;19919;-79
2023/03/29 05:58:17;;;;;;;;;;;;;;;10.38;100.00;98924.13;5072371;28;19977;-79
2023/03/29 06:00:50;;;;;;;;;;;;;;;10.37;100.00;98912.72;5078733;28;19949;-79
2023/03/29 06:03:59;;;;;;;;;;;;;;;10.36;100.00;98913.75;5106683;27;19919;-80
2023/03/29 06:06:35;;;;;;;;;;;;;;;10.37;100.00;98901.34;5113759;27;19919;-79
2023/03/29 06:09:02;;;;;;;;;;;;;;;10.35;100.00;98898.88;5112654;28;19920;-79
2023/03/29 06:11:35;;;;;;;;;;;;;;;10.36;100.00;98903.19;5095111;27;19968;-79
2023/03/29 06:14:09;;;;;;;;;;;;;;;10.33;100.00;98897.44;5114590;27;20486;-79
2023/03/29 06:16:45;;;;;;;;;;;;;;;10.36;100.00;98894.44;5113156;27;20395;-79
2023/03/29 06:19:15;;;;;;;;;;;;;;;10.31;100.00;98889.69;5115414;27;20341;-79
2023/03/29 06:21:43;;;;;;;;;;;;;;;10.33;100.00;98886.88;5098535;27;19915;-80
2023/03/29 06:24:15;;;;;;;;;;;;;;;10.32;100.00;98869.41;5087774;27;19967;-79
2023/03/29 06:26:48;;;;;;;;;;;;;;;10.33;100.00;98858.66;5113830;27;19966;-79
2023/03/29 06:29:17;;;;;;;;;;;;;;;10.34;100.00;98862.09;5098754;27;20291;-79
2023/03/29 06:31:48;;;;;;;;;;;;;;;10.28;100.00;98855.72;5093915;28;20355;-79
2023/03/29 06:34:36;;;;;;;;;;;;;;;10.24;100.00;98839.41;5116128;27;19925;-79
2023/03/29 06:37:27;;;;;;;;;;;;;;;10.22;100.00;98844.06;5132526;27;20060;-79
2023/03/29 06:40:05;;;;;;;;;;;;;;;10.22;100.00;98833.50;5087948;27;19922;-79
2023/03/29 06:42:40;;;;;;;;;;;;;;;10.20;100.00;98834.69;5088666;27;19924;-79
2023/03/29 06:45:15;;;;;;;;;;;;;;;10.19;100.00;98828.59;5130660;27;19922;-79
2023/03/29 06:47:47;;;;;;;;;;;;;;;10.15;100.00;98817.56;5094413;27;19923;-79
2023/03/29 06:50:16;;;;;;;;;;;;;;;10.14;100.00;98813.31;5101941;27;20006;-79
2023/03/29 06:53:03;;;;;;;;;;;;;;;10.13;100.00;98803.72;5074688;27;19958;-80
2023/03/29 06:55:35;;;;;;;;;;;;;;;10.11;100.00;98803.09;5112214;27;19957;-79
2023/03/29 06:58:23;;;;;;;;;;;;;;;10.12;100.00;98817.09;5095648;27;19922;-79
2023/03/29 07:00:52;;;;;;;;;;;;;;;10.07;100.00;98808.91;5096375;28;20378;-80
2023/03/29 07:03:29;;;;;;;;;;;;;;;10.09;100.00;98806.91;5089867;28;19920;-79
2023/03/29 07:06:03;;;;;;;;;;;;;;;10.10;100.00;98800.63;5112638;28;19968;-79
2023/03/29 07:08:36;;;;;;;;;;;;;;;10.08;100.00;98784.97;5074866;28;19955;-79
2023/03/29 07:11:07;;;;;;;;;;;;;;;10.06;100.00;98797.56;5099262;28;19931;-80
2023/03/29 07:14:02;;;;;;;;;;;;;;;10.09;100.00;98785.78;5096098;28;19942;-79
2023/03/29 07:16:31;;;;;;;;;;;;;;;10.07;100.00;98790.44;5102720;28;19923;-79
2023/03/29 07:19:16;;;;;;;;;;;;;;;10.09;100.00;98785.78;5083649;28;19964;-79
2023/03/29 07:22:16;;;;;;;;;;;;;;;10.10;100.00;98780.34;5090797;28;19920;-79
2023/03/29 07:24:52;;;;;;;;;;;;;;;10.14;100.00;98764.97;5091494;28;19969;-79
2023/03/29 07:27:19;;;;;;;;;;;;;;;10.14;100.00;98763.16;5104807;28;19943;-75
2023/03/29 07:29:50;;;;;;;;;;;;;;;10.13;100.00;98752.78;5090624;28;19927;-76
2023/03/29 07:32:18;;;;;;;;;;;;;;;10.15;100.00;98754.22;5076031;28;19923;-79
2023/03/29 07:35:00;;;;;;;;;;;;;;;10.16;100.00;98755.84;5091494;28;19920;-79
2023/03/29 07:37:35;;;;;;;;;;;;;;;10.17;100.00;98759.31;5101177;28;20657;-79
2023/03/29 07:40:11;;;;;;;;;;;;;;;10.18;100.00;98745.09;5105404;28;20388;-79
2023/03/29 07:43:01;;;;;;;;;;;;;;;10.20;100.00;98735.19;5111136;28;19971;-79
2023/03/29 07:45:31;;;;;;;;;;;;;;;10.23;100.00;98729.53;5081717;28;19959;-79
2023/03/29 07:48:05;;;;;;;;;;;;;;;10.23;100.00;98713.69;5105234;28;19916;-78
2023/03/29 07:50:47;;;;;;;;;;;;;;;10.20;100.00;98708.78;5095323;28;19926;-79
2023/03/29 07:53:18;;;;;;;;;;;;;;;10.21;100.00;98699.84;5089971;28;19920;-79
2023/03/29 07:55:48;;;;;;;;;;;;;;;10.23;100.00;98700.47;5109249;28;19972;-79
2023/03/29 07:58:36;;;;;;;;;;;;;;;10.28;100.00;98678.78;5108720;28;19923;-79
2023/03/29 08:01:04;;;;;;;;;;;;;;;10.30;100.00;98685.50;5083524;28;19920;-79
2023/03/29 08:03:51;;;;;;;;;;;;;;;10.35;100.00;98670.94;5115870;27;19962;-79
2023/03/29 08:06:26;;;;;;;;;;;;;;;10.39;100.00;98656.34;5098018;27;19927;-78
2023/03/29 08:08:54;;;;;;;;;;;;;;;10.41;100.00;98654.34;5115526;27;19955;-79
2023/03/29 08:11:24;;;;;;;;;;;;;;;10.44;100.00;98656.63;5099023;27;20279;-79
2023/03/29 08:13:58;;;;;;;;;;;;;;;10.49;100.00;98654.28;5086714;28;20448;-79
2023/03/29 08:16:26;;;;;;;;;;;;;;;10.57;100.00;98652.50;5131754;27;20026;-79
2023/03/29 08:19:03;;;;;;;;;;;;;;;10.62;100.00;98639.56;5104406;27;19938;-80
2023/03/29 08:21:50;;;;;;;;;;;;;;;10.64;100.00;98648.09;5118588;27;19920;-79
2023/03/29 08:24:20;;;;;;;;;;;;;;;10.65;100.00;98633.88;5096750;27;19949;-79
2023/03/29 08:26:54;;;;;;;;;;;;;;;10.63;100.00;98654.38;5095518;27;19919;-75
2023/03/29 08:29:24;;;;;;;;;;;;;;;10.64;100.00;98643.63;5090226;28;19919;-76
2023/03/29 08:31:56;;;;;;;;;;;;;;;10.62;100.00;98655.41;5089948;27;19916;-79
2023/03/29 08:34:26;;;;;;;;;;;;;;;10.59;100.00;98661.06;5107086;28;20336;-79
2023/03/29 08:37:05;;;;;;;;;;;;;;;10.61;100.00;98645.81;5095220;27;19922;-79
2023/03/29 08:39:40;;;;;;;;;;;;;;;10.59;100.00;98646.00;5106717;27;19915;-79
2023/03/29 08:42:48;;;;;;;;;;;;;;;10.62;100.00;98632.41;5092933;27;19923;-79
2023/03/29 08:45:36;;;;;;;;;;;;;;;10.61;100.00;98628.16;5091033;27;19915;-79
2023/03/29 08:48:27;;;;;;;;;;;;;;;10.62;100.00;98621.84;5062253;27;19964;-79
2023/03/29 08:51:01;;;;;;;;;;;;;;;10.67;100.00;98611.53;5105386;27;20002;-79
2023/03/29 08:53:40;;;;;;;;;;;;;;;10.71;100.00;98592.66;5105876;28;19999;-80
2023/03/29 08:56:23;;;;;;;;;;;;;;;10.70;100.00;98605.06;5086759;28;19919;-80
2023/03/29 08:59:18;;;;;;;;;;;;;;;10.72;100.00;98591.66;5101415;28;19919;-80
2023/03/29 09:01:50;;;;;;;;;;;;;;;10.73;100.00;98588.00;5085526;28;19920;-80
2023/03/29 09:04:29;;;;;;;;;;;;;;;10.76;100.00;98577.88;5073449;28;19919;-80
2023/03/29 09:07:13;;;;;;;;;;;;;;;10.80;100.00;98575.66;5072646;28;20419;-79
2023/03/29 09:09:45;;;;;;;;;;;;;;;10.83;100.00;98569.19;5086674;28;19927;-80
2023/03/29 09:12:41;;;;;;;;;;;;;;;10.84;100.00;98565.53;5091910;28;20364;-80
2023/03/29 09:15:19;;;;;;;;;;;;;;;10.83;100.00;98571.81;5073201;28;20451;-80
2023/03/29 09:18:15;;;;;;;;;;;;;;;10.84;100.00;98569.00;5092617;28;20352;-80
2023/03/29 09:21:10;;;;;;;;;;;;;;;10.88;100.00;98572.03;5067631;28;19954;-80
2023/03/29 09:24:02;;;;;;;;;;;;;;;10.87;100.00;98578.34;5072964;28;19965;-80
2023/03/29 09:26:54;;;;;;;;;;;;;;;10.88;100.00;98558.84;5090764;28;19989;-80
2023/03/29 09:29:48;;;;;;;;;;;;;;;10.90;100.00;98562.94;5097566;28;19923;-80
2023/03/29 09:32:26;;;;;;;;;;;;;;;10.93;100.00;98553.78;5097982;28;19927;-80
2023/03/29 09:35:06;;;;;;;;;;;;;;;11.00;100.00;98559.94;5065471;28;19977;-80
2023/03/29 09:37:36;;;;;;;;;;;;;;;11.07;100.00;98538.03;5103777;28;19919;-80
2023/03/29 09:40:10;;;;;;;;;;;;;;;11.13;100.00;98542.53;5085840;28;20276;-80
2023/03/29 09:42:54;;;;;;;;;;;;;;;11.16;100.00;98526.28;5088214;28;19916;-80
2023/03/29 09:45:23;;;;;;;;;;;;;;;11.21;100.00;98530.97;5090915;28;19916;-80
2023/03/29 09:47:56;;;;;;;;;;;;;;;11.28;100.00;98540.56;5082200;28;19967;-81
2023/03/29 09:50:30;;;;;;;;;;;;;;;11.37;100.00;98535.91;5066487;28;19922;-81
2023/03/29 09:53:01;;;;;;;;;;;;;;;11.45;100.00;98545.50;5076697;28;19924;-80
2023/03/29 09:55:36;;;;;;;;;;;;;;;11.54;100.00;98535.59;5070800;28;19919;-81
2023/03/29 09:58:16;;;;;;;;;;;;;;;11.63;100.00;98520.34;5066545;28;20379;-80
2023/03/29 10:00:50;;;;;;;;;;;;;;;11.68;100.00;98514.44;5075237;28;20379;-81
2023/03/29 10:03:23;;;;;;;;;;;;;;;11.69;100.00;98521.41;5082696;28;20280;-81
2023/03/29 10:06:09;;;;;;;;;;;;;;;11.69;100.00;98503.66;5100352;28;20324;-80
2023/03/29 10:08:46;;;;;;;;;;;;;;;11.71;100.00;98516.69;5112566;28;19974;-80
2023/03/29 10:11:23;;;;;;;;;;;;;;;11.72;100.00;98516.50;5096783;28;20347;-80
2023/03/29 10:13:56;;;;;;;;;;;;;;;11.78;100.00;98520.19;5106599;28;19928;-80
2023/03/29 10:16:25;;;;;;;;;;;;;;;11.85;100.00;98513.06;5070957;28;19916;-81
2023/03/29 10:18:55;;;;;;;;;;;;;;;11.90;100.00;98520.41;5102093;28;19916;-81
2023/03/29 10:21:29;;;;;;;;;;;;;;;12.01;100.00;98517.16;5108595;28;20312;-81
2023/03/29 10:24:00;;;;;;;;;;;;;;;12.14;100.00;98528.81;5114348;28;19916;-81
2023/03/29 10:26:29;;;;;;;;;;;;;;;12.26;100.00;98535.16;5109862;28;19960;-81
2023/03/29 10:29:00;;;;;;;;;;;;;;;12.44;100.00;98525.00;5091240;28;19915;-81
2023/03/29 10:31:31;;;;;;;;;;;;;;;12.56;100.00;98533.13;5100982;28;19916;-81
2023/03/29 10:34:02;;;;;;;;;;;;;;;12.67;100.00;98532.50;5022453;28;20280;-81
2023/03/29 10:36:32;;;;;;;;;;;;;;;12.75;100.00;98534.13;5107028;28;20353;-81
2023/03/29 10:39:02;;;;;;;;;;;;;;;12.79;100.00;98543.28;5103612;28;19916;-81
2023/03/29 10:41:33;;;;;;;;;;;;;;;12.85;100.00;98531.84;5104230;28;19926;-82
2023/03/29 10:44:00;;;;;;;;;;;;;;;12.94;100.00;98532.47;5105458;28;20049;-81
2023/03/29 10:46:30;;;;;;;;;;;;;;;13.03;100.00;98535.69;5104534;28;19922;-82
2023/03/29 10:49:01;;;;;;;;;;;;;;;13.18;100.00;98537.31;5093347;28;20356;-79
2023/03/29 10:51:29;;;;;;;;;;;;;;;13.23;100.00;98530.38;5102306;28;19924;-80
2023/03/29 10:53:58;;;;;;;;;;;;;;;13.20;100.00;98524.66;5094455;28;20391;-79
2023/03/29 10:56:40;;;;;;;;;;;;;;;13.19;100.00;98521.19;5095542;28;19977;-80
2023/03/29 10:59:22;;;;;;;;;;;;;;;13.19;100.00;98521.19;5112844;28;19915;-81
2023/03/29 11:01:56;;;;;;;;;;;;;;;13.22;100.00;98530.56;5113468;28;19919;-81
2023/03/29 11:04:30;;;;;;;;;;;;;;;13.42;100.00;98514.56;5095633;28;19924;-81
2023/03/29 11:07:08;;;;;;;;;;;;;;;13.51;100.00;98500.06;5099732;28;19920;-81
2023/03/29 11:09:39;;;;;;;;;;;;;;;13.56;100.00;98493.28;5103415;28;19916;-81
2023/03/29 11:12:13;;;;;;;;;;;;;;;13.55;100.00;98484.53;5101152;28;20329;-81
2023/03/29 11:14:44;;;;;;;;;;;;;;;13.52;100.00;98483.09;5113838;28;19923;-81
2023/03/29 11:17:32;;;;;;;;;;;;;;;13.45;100.00;98484.13;5101814;28;19916;-81
2023/03/29 11:20:01;;;;;;;;;;;;;;;13.56;100.00;98490.63;5103596;28;19922;-81
2023/03/29 11:22:38;;;;;;;;;;;;;;;13.74;100.00;98480.09;5095589;28;20303;-81
2023/03/29 11:25:27;;;;;;;;;;;;;;;13.89;100.00;98485.13;5110865;28;19923;-81
2023/03/29 11:28:14;;;;;;;;;;;;;;;13.93;100.00;98484.69;5110048;28;19923;-81
2023/03/29 11:30:50;;;;;;;;;;;;;;;13.90;100.00;98470.03;5093893;28;20433;-81
2023/03/29 11:33:27;;;;;;;;;;;;;;;13.91;100.00;98454.88;5111092;28;19920;-81
2023/03/29 11:36:12;;;;;;;;;;;;;;;13.94;100.00;98471.22;5104438;28;19920;-81
2023/03/29 11:38:58;;;;;;;;;;;;;;;14.09;100.00;98476.22;5094353;28;20344;-78
2023/03/29 11:41:30;;;;;;;;;;;;;;;14.17;100.00;98483.09;5112076;28;19923;-80
2023/03/29 11:44:15;;;;;;;;;;;;;;;14.27;100.00;98488.72;5107755;28;19915;-81
2023/03/29 11:46:47;;;;;;;;;;;;;;;14.37;100.00;98492.75;5102254;28;20398;-81
2023/03/29 11:49:29;;;;;;;;;;;;;;;14.52;100.00;98495.09;5108605;28;20344;-80
2023/03/29 11:52:17;;;;;;;;;;;;;;;14.62;100.00;98476.78;5110647;28;19916;-81
2023/03/29 11:55:01;;;;;;;;;;;;;;;14.65;100.00;98483.50;5086719;28;19924;-81
2023/03/29 11:57:38;;;;;;;;;;;;;;;14.63;100.00;98480.25;5097632;28;19986;-80
2023/03/29 12:00:27;;;;;;;;;;;;;;;14.47;100.00;98478.97;5104132;28;19922;-80
2023/03/29 12:02:56;;;;;;;;;;;;;;;14.35;100.00;98471.69;5107319;28;19966;-81
2023/03/29 12:05:34;;;;;;;;;;;;;;;14.18;100.00;98487.38;5101576;28;20360;-80
2023/03/29 12:08:08;;;;;;;;;;;;;;;14.06;100.00;98491.78;5081360;28;19923;-80
2023/03/29 12:10:58;;;;;;;;;;;;;;;13.96;100.00;98481.63;5098743;28;19920;-80
2023/03/29 12:13:34;;;;;;;;;;;;;;;13.89;100.00;98492.28;5092917;28;19969;-81
2023/03/29 12:16:07;;;;;;;;;;;;;;;13.79;100.00;98489.28;5108278;28;20436;-80
2023/03/29 12:18:46;;;;;;;;;;;;;;;13.81;100.00;98488.03;5099806;28;19963;-81
2023/03/29 12:21:23;;;;;;;;;;;;;;;13.95;100.00;98469.38;5105685;28;19923;-80
2023/03/29 12:23:52;;;;;;;;;;;;;;;14.18;100.00;98471.44;5099809;28;20412;-81
2023/03/29 12:26:39;;;;;;;;;;;;;;;14.44;100.00;98469.59;5095408;28;20019;-80
2023/03/29 12:29:16;;;;;;;;;;;;;;;14.77;100.00;98462.31;5105353;28;19959;-80
2023/03/29 12:31:51;;;;;;;;;;;;;;;14.96;100.00;98463.16;5101076;28;19969;-81
2023/03/29 12:34:43;;;;;;;;;;;;;;;15.19;100.00;98461.66;5086221;28;20016;-78
2023/03/29 12:37:47;;;;;;;;;;;;;;;15.40;100.00;98448.09;5068133;28;19980;-80
2023/03/29 12:40:41;;;;;;;;;;;;;;;15.37;100.00;98447.50;5110950;28;20031;-80
2023/03/29 12:43:31;;;;;;;;;;;;;;;15.36;100.00;98423.78;5100690;28;19915;-80
2023/03/29 12:46:24;;;;;;;;;;;;;;;15.33;100.00;98458.81;5107856;28;20006;-80
2023/03/29 12:49:04;;;;;;;;;;;;;;;15.41;100.00;98447.88;5086294;28;20334;-81
2023/03/29 12:51:33;;;;;;;;;;;;;;;15.41;100.00;98444.38;5101167;28;20343;-78
2023/03/29 12:54:00;;;;;;;;;;;;;;;15.47;100.00;98446.16;5097325;28;20388;-80
2023/03/29 12:56:38;;;;;;;;;;;;;;;15.53;100.00;98453.22;5104035;28;19916;-80
2023/03/29 12:59:30;;;;;;;;;;;;;;;15.45;100.00;98438.38;5108814;28;19915;-80
2023/03/29 13:01:59;;;;;;;;;;;;;;;15.56;100.00;98436.78;5109467;28;19919;-80
2023/03/29 13:04:48;;;;;;;;;;;;;;;15.80;100.00;98417.41;5098806;28;20315;-80
2023/03/29 13:07:25;;;;;;;;;;;;;;;15.94;100.00;98418.81;5108545;28;20014;-79
2023/03/29 13:10:08;;;;;;;;;;;;;;;16.04;100.00;98420.16;5098843;28;19976;-79
2023/03/29 13:12:38;;;;;;;;;;;;;;;16.10;100.00;98411.22;5106634;28;20408;-79
2023/03/29 13:15:08;;;;;;;;;;;;;;;16.13;100.00;98397.44;5083747;28;19919;-78
2023/03/29 13:17:51;;;;;;;;;;;;;;;16.11;100.00;98408.34;5110026;28;20273;-78